Time;durP1;ratioP1;P1;durP2;ratioP2;P2;SDS_P1;SDS_P2;PMS_P1;PMS_P2;Temp;Humidity;BMP_temperature;BMP_pressure;BME280_temperature;BME280_humidity;BME280_pressure;Samples;Min_cycle;Max_cycle;Signal;HPM_P1;HPM_P2
2021/12/25 00:00:05;;;;;;;4.47;1.13;;;;;;;;;;5070919;28;20049;-61
2021/12/25 00:02:33;;;;;;;4.13;1.10;;;;;;;;;;5071641;28;20040;-61
2021/12/25 00:04:59;;;;;;;5.10;1.10;;;;;;;;;;5071811;28;20474;-61
2021/12/25 00:07:25;;;;;;;3.22;0.77;;;;;;;;;;5071295;28;20123;-61
2021/12/25 00:09:51;;;;;;;4.75;1.30;;;;;;;;;;5071699;28;20040;-60
2021/12/25 00:12:17;;;;;;;4.07;1.10;;;;;;;;;;5071588;28;20041;-60
2021/12/25 00:14:43;;;;;;;5.07;1.30;;;;;;;;;;5070917;28;20081;-61
2021/12/25 00:17:09;;;;;;;7.88;1.20;;;;;;;;;;5071644;28;20352;-61
2021/12/25 00:19:35;;;;;;;3.58;1.20;;;;;;;;;;5071624;28;20451;-61
2021/12/25 00:22:01;;;;;;;3.72;0.90;;;;;;;;;;5070578;28;20075;-61
2021/12/25 00:24:27;;;;;;;6.43;1.42;;;;;;;;;;5071595;28;20048;-61
2021/12/25 00:27:04;;;;;;;4.97;1.17;;;;;;;;;;5071319;28;20044;-61
2021/12/25 00:34:46;;;;;;;1.85;0.77;;;;;;;;;;5071486;28;20060;-61
2021/12/25 00:37:13;;;;;;;4.13;1.05;;;;;;;;;;5070625;28;20051;-60
2021/12/25 00:39:39;;;;;;;4.30;0.90;;;;;;;;;;5071301;28;20082;-61
2021/12/25 00:42:06;;;;;;;5.43;1.25;;;;;;;;;;5071329;28;20048;-60
2021/12/25 00:44:33;;;;;;;6.15;1.10;;;;;;;;;;5071817;28;20044;-61
2021/12/25 00:46:59;;;;;;;3.28;0.80;;;;;;;;;;5075506;28;20045;-61
2021/12/25 00:49:26;;;;;;;2.67;1.05;;;;;;;;;;5075474;28;20043;-61
2021/12/25 00:51:52;;;;;;;3.70;0.90;;;;;;;;;;5073006;28;20484;-61
2021/12/25 00:54:18;;;;;;;3.70;0.90;;;;;;;;;;5075303;28;20368;-61
2021/12/25 00:56:44;;;;;;;2.08;0.57;;;;;;;;;;5075315;28;20041;-60
2021/12/25 00:59:10;;;;;;;5.05;1.27;;;;;;;;;;5074269;28;20384;-61
2021/12/25 01:01:37;;;;;;;2.00;0.70;;;;;;;;;;5074713;28;20123;-61
2021/12/25 01:04:03;;;;;;;3.88;1.00;;;;;;;;;;5074787;28;20047;-60
2021/12/25 01:06:29;;;;;;;4.63;0.93;;;;;;;;;;5074260;28;20037;-61
2021/12/25 01:08:55;;;;;;;3.25;1.00;;;;;;;;;;5074934;28;20047;-61
2021/12/25 01:11:27;;;;;;;3.90;0.80;;;;;;;;;;5074759;28;20123;-61
2021/12/25 01:14:02;;;;;;;3.60;0.85;;;;;;;;;;5073725;28;20123;-61
2021/12/25 01:22:00;;;;;;;5.00;0.80;;;;;;;;;;5073996;28;20769;-61
2021/12/25 01:39:55;;;;;;;6.18;1.00;;;;;;;;;;5074403;28;20047;-61
2021/12/25 01:47:54;;;;;;;4.85;0.75;;;;;;;;;;5074414;28;20066;-61
2021/12/25 01:50:24;;;;;;;6.72;0.80;;;;;;;;;;5073413;28;20930;-60
2021/12/25 01:52:50;;;;;;;6.20;1.00;;;;;;;;;;5074217;28;20043;-61
2021/12/25 01:55:24;;;;;;;8.52;1.02;;;;;;;;;;5073645;28;20123;-61
2021/12/25 01:57:51;;;;;;;3.70;0.80;;;;;;;;;;5073489;28;20041;-61
2021/12/25 02:00:20;;;;;;;2.33;0.57;;;;;;;;;;5074019;28;20043;-61
2021/12/25 02:02:46;;;;;;;3.10;0.85;;;;;;;;;;5073747;28;20059;-61
2021/12/25 02:05:13;;;;;;;2.47;0.70;;;;;;;;;;5073322;28;20091;-61
2021/12/25 02:07:39;;;;;;;4.28;0.80;;;;;;;;;;5073942;28;20048;-60
2021/12/25 02:10:06;;;;;;;3.42;0.93;;;;;;;;;;5073822;28;20041;-61
2021/12/25 02:12:33;;;;;;;2.40;0.75;;;;;;;;;;5073051;28;20067;-60
2021/12/25 02:15:04;;;;;;;4.68;1.10;;;;;;;;;;5073773;28;20040;-60
2021/12/25 02:17:54;;;;;;;5.30;0.80;;;;;;;;;;5073502;28;20040;-61
2021/12/25 02:20:26;;;;;;;4.10;1.05;;;;;;;;;;5072652;28;20048;-61
2021/12/25 02:22:55;;;;;;;1.20;0.60;;;;;;;;;;5073146;28;20138;-61
2021/12/25 02:25:22;;;;;;;3.78;0.80;;;;;;;;;;5072446;28;20087;-60
2021/12/25 02:27:48;;;;;;;1.27;0.60;;;;;;;;;;5052574;28;20072;-61
2021/12/25 02:30:14;;;;;;;3.58;0.70;;;;;;;;;;5053357;28;20391;-61
2021/12/25 02:32:43;;;;;;;1.60;0.70;;;;;;;;;;5053364;28;20491;-61
2021/12/25 02:35:09;;;;;;;3.65;0.80;;;;;;;;;;5052788;28;20077;-61
2021/12/25 02:37:35;;;;;;;1.80;0.77;;;;;;;;;;5053311;28;20045;-61
2021/12/25 02:40:01;;;;;;;1.63;0.80;;;;;;;;;;5053205;28;20488;-61
2021/12/25 02:42:27;;;;;;;4.65;0.73;;;;;;;;;;5051957;28;20041;-61
2021/12/25 02:44:53;;;;;;;4.22;0.90;;;;;;;;;;5053182;28;20041;-61
2021/12/25 02:47:21;;;;;;;1.92;0.88;;;;;;;;;;5053177;28;20056;-60
2021/12/25 02:49:49;;;;;;;2.28;0.63;;;;;;;;;;5050884;28;20469;-60
2021/12/25 02:52:15;;;;;;;5.00;1.30;;;;;;;;;;5052936;28;20048;-60
2021/12/25 02:54:41;;;;;;;4.38;0.80;;;;;;;;;;5052726;28;20171;-60
2021/12/25 02:57:07;;;;;;;3.90;0.82;;;;;;;;;;5052313;28;20041;-61
2021/12/25 02:59:33;;;;;;;4.18;0.82;;;;;;;;;;5052940;28;20369;-60
2021/12/25 03:02:08;;;;;;;5.28;0.75;;;;;;;;;;5052753;28;20047;-61
2021/12/25 03:04:35;;;;;;;4.20;0.70;;;;;;;;;;5051928;28;20067;-60
2021/12/25 03:07:01;;;;;;;3.65;0.90;;;;;;;;;;5051875;28;20045;-61
2021/12/25 03:09:27;;;;;;;3.20;0.68;;;;;;;;;;5052763;28;20039;-60
2021/12/25 03:11:53;;;;;;;3.25;1.02;;;;;;;;;;5050209;28;20064;-61
2021/12/25 03:14:35;;;;;;;3.45;0.60;;;;;;;;;;5052719;28;20041;-61
2021/12/25 03:17:01;;;;;;;2.03;0.85;;;;;;;;;;5052374;28;20225;-60
2021/12/25 03:19:32;;;;;;;0.88;0.47;;;;;;;;;;5051718;28;20033;-60
2021/12/25 03:21:59;;;;;;;1.75;0.70;;;;;;;;;;5052156;28;20037;-60
2021/12/25 03:24:26;;;;;;;2.20;0.90;;;;;;;;;;5052369;28;20149;-61
2021/12/25 03:26:55;;;;;;;2.50;0.68;;;;;;;;;;5065460;28;20529;-60
2021/12/25 03:29:21;;;;;;;4.90;0.95;;;;;;;;;;5072196;28;20040;-60
2021/12/25 03:31:47;;;;;;;2.38;0.80;;;;;;;;;;5072222;28;20052;-60
2021/12/25 03:34:13;;;;;;;1.15;0.65;;;;;;;;;;5071477;28;20474;-60
2021/12/25 03:36:39;;;;;;;1.00;0.60;;;;;;;;;;5072121;28;20055;-61
2021/12/25 03:39:06;;;;;;;3.97;0.85;;;;;;;;;;5072214;28;20415;-61
2021/12/25 03:41:32;;;;;;;1.55;0.70;;;;;;;;;;5071436;28;20364;-60
2021/12/25 03:44:00;;;;;;;1.95;0.60;;;;;;;;;;5071936;28;20045;-60
2021/12/25 03:46:28;;;;;;;2.78;0.60;;;;;;;;;;5071769;28;20053;-60
2021/12/25 03:59:35;;;;;;;2.70;0.70;;;;;;;;;;5071889;28;20083;-60
2021/12/25 04:02:07;;;;;;;2.28;0.50;;;;;;;;;;5071420;28;20097;-60
2021/12/25 04:04:36;;;;;;;1.90;0.70;;;;;;;;;;5070999;28;20040;-60
2021/12/25 04:09:34;;;;;;;1.83;0.60;;;;;;;;;;5071665;28;20059;-60
2021/12/25 04:12:01;;;;;;;3.63;0.80;;;;;;;;;;5070923;28;20105;-60
2021/12/25 04:14:28;;;;;;;1.90;0.65;;;;;;;;;;5071701;28;20091;-60
2021/12/25 04:16:54;;;;;;;1.40;0.52;;;;;;;;;;5071781;28;20105;-60
2021/12/25 04:19:20;;;;;;;1.35;0.60;;;;;;;;;;5070949;28;20490;-60
2021/12/25 04:21:53;;;;;;;4.10;0.68;;;;;;;;;;5071376;28;20047;-60
2021/12/25 04:24:19;;;;;;;2.63;0.75;;;;;;;;;;5071600;28;20484;-60
2021/12/25 04:26:47;;;;;;;7.05;0.50;;;;;;;;;;5057988;28;20043;-60
2021/12/25 04:47:54;;;;;;;2.63;0.55;;;;;;;;;;5050726;28;20045;-60
2021/12/25 04:49:08;;;;;;;2.03;0.50;;;;;;;;;;5050723;28;20693;-60
2021/12/25 05:04:55;;;;;;;1.48;0.70;;;;;;;;;;5050526;28;20049;-60
2021/12/25 05:07:22;;;;;;;1.00;0.50;;;;;;;;;;5051206;28;20041;-60
2021/12/25 05:09:48;;;;;;;2.75;0.90;;;;;;;;;;5050860;28;20040;-60
2021/12/25 05:12:14;;;;;;;2.05;0.50;;;;;;;;;;5050515;28;20364;-60
2021/12/25 05:14:40;;;;;;;2.08;0.65;;;;;;;;;;5051053;28;20103;-60
2021/12/25 05:17:07;;;;;;;0.73;0.60;;;;;;;;;;5049527;28;20384;-60
2021/12/25 05:19:34;;;;;;;2.50;0.60;;;;;;;;;;5050388;28;20052;-60
2021/12/25 05:22:00;;;;;;;2.17;0.70;;;;;;;;;;5050389;28;20174;-60
2021/12/25 05:24:27;;;;;;;0.85;0.60;;;;;;;;;;5051019;28;20136;-60
2021/12/25 05:26:57;;;;;;;1.98;0.50;;;;;;;;;;5064257;28;20445;-60
2021/12/25 05:29:24;;;;;;;3.90;0.70;;;;;;;;;;5070976;28;20482;-60
2021/12/25 05:31:51;;;;;;;1.55;0.63;;;;;;;;;;5073979;28;20115;-60
2021/12/25 05:34:17;;;;;;;2.30;0.55;;;;;;;;;;5073859;28;20041;-60
2021/12/25 05:36:43;;;;;;;2.38;0.63;;;;;;;;;;5074231;28;20036;-60
2021/12/25 05:39:12;;;;;;;2.47;0.50;;;;;;;;;;5074438;28;20563;-61
2021/12/25 05:41:39;;;;;;;2.03;0.77;;;;;;;;;;5073730;28;20083;-60
2021/12/25 05:44:05;;;;;;;0.65;0.50;;;;;;;;;;5074146;28;20791;-60
2021/12/25 05:46:31;;;;;;;2.88;0.85;;;;;;;;;;5074386;28;20037;-60
2021/12/25 05:48:57;;;;;;;3.10;0.80;;;;;;;;;;5073638;28;20471;-59
2021/12/25 05:51:24;;;;;;;1.23;0.60;;;;;;;;;;5074180;28;20064;-60
2021/12/25 05:53:50;;;;;;;3.72;0.85;;;;;;;;;;5074070;28;20044;-60
2021/12/25 05:56:16;;;;;;;1.30;0.55;;;;;;;;;;5073668;28;20592;-60
2021/12/25 05:58:43;;;;;;;3.13;0.70;;;;;;;;;;5074171;28;20140;-60
2021/12/25 06:01:09;;;;;;;2.70;0.60;;;;;;;;;;5073856;28;20044;-60
2021/12/25 06:03:35;;;;;;;0.82;0.63;;;;;;;;;;5073171;28;20044;-60
2021/12/25 06:06:01;;;;;;;1.83;0.50;;;;;;;;;;5074097;28;20372;-60
2021/12/25 06:08:28;;;;;;;3.45;0.77;;;;;;;;;;5073935;28;20045;-60
2021/12/25 06:10:54;;;;;;;2.17;0.75;;;;;;;;;;5073174;28;20468;-60
2021/12/25 06:13:22;;;;;;;0.57;0.50;;;;;;;;;;5073972;28;20033;-60
2021/12/25 06:15:48;;;;;;;5.95;0.70;;;;;;;;;;5073493;28;20048;-60
2021/12/25 06:18:14;;;;;;;1.10;0.50;;;;;;;;;;5073292;28;20036;-60
2021/12/25 06:20:41;;;;;;;1.42;0.60;;;;;;;;;;5073756;28;20037;-60
2021/12/25 06:23:07;;;;;;;2.95;0.60;;;;;;;;;;5073239;28;20056;-60
2021/12/25 06:25:33;;;;;;;1.92;0.50;;;;;;;;;;5072524;28;20056;-60
2021/12/25 06:28:00;;;;;;;2.22;0.77;;;;;;;;;;5073620;28;20079;-60
2021/12/25 06:30:26;;;;;;;2.50;0.55;;;;;;;;;;5073333;28;20411;-60
2021/12/25 06:32:52;;;;;;;6.70;1.05;;;;;;;;;;5072795;28;20040;-60
2021/12/25 06:35:18;;;;;;;1.27;0.40;;;;;;;;;;5073328;28;20123;-60
2021/12/25 06:37:46;;;;;;;1.00;0.50;;;;;;;;;;5073249;28;20376;-60
2021/12/25 06:40:19;;;;;;;1.05;0.40;;;;;;;;;;5072759;28;20102;-59
2021/12/25 06:42:46;;;;;;;1.20;0.40;;;;;;;;;;5073109;28;20127;-60
2021/12/25 06:45:12;;;;;;;1.90;0.50;;;;;;;;;;5073357;28;20098;-60
2021/12/25 06:47:38;;;;;;;1.23;0.40;;;;;;;;;;5072497;28;20123;-60
2021/12/25 06:50:07;;;;;;;0.77;0.40;;;;;;;;;;5073124;28;20070;-60
2021/12/25 06:52:33;;;;;;;1.45;0.50;;;;;;;;;;5073036;28;20120;-60
2021/12/25 06:54:59;;;;;;;1.58;0.40;;;;;;;;;;5072570;28;20047;-60
2021/12/25 06:57:28;;;;;;;2.33;0.38;;;;;;;;;;5073031;28;20052;-60
2021/12/25 06:59:54;;;;;;;0.85;0.40;;;;;;;;;;5072926;28;20037;-60
2021/12/25 07:02:20;;;;;;;0.85;0.50;;;;;;;;;;5071874;28;20467;-60
2021/12/25 07:04:46;;;;;;;0.82;0.38;;;;;;;;;;5072805;28;20102;-60
2021/12/25 07:07:12;;;;;;;1.17;0.40;;;;;;;;;;5072283;28;20048;-60
2021/12/25 07:09:38;;;;;;;0.68;0.30;;;;;;;;;;5071975;28;20471;-60
2021/12/25 07:12:04;;;;;;;3.92;0.40;;;;;;;;;;5072519;28;20063;-59
2021/12/25 07:14:30;;;;;;;0.82;0.40;;;;;;;;;;5072657;28;20037;-60
2021/12/25 07:16:56;;;;;;;2.97;0.43;;;;;;;;;;5071848;28;20402;-60
2021/12/25 07:19:22;;;;;;;0.52;0.30;;;;;;;;;;5072535;28;20463;-60
2021/12/25 07:21:49;;;;;;;1.05;0.43;;;;;;;;;;5072471;28;20479;-60
2021/12/25 07:24:15;;;;;;;0.60;0.30;;;;;;;;;;5071254;28;20139;-60
2021/12/25 07:26:42;;;;;;;2.00;0.40;;;;;;;;;;5072345;28;20060;-60
2021/12/25 07:29:08;;;;;;;0.50;0.30;;;;;;;;;;5072210;28;20041;-60
2021/12/25 07:31:34;;;;;;;0.73;0.40;;;;;;;;;;5071654;28;20044;-60
2021/12/25 07:34:02;;;;;;;3.33;0.60;;;;;;;;;;5072061;28;20036;-60
2021/12/25 07:36:28;;;;;;;1.33;0.40;;;;;;;;;;5072069;28;20045;-60
2021/12/25 07:38:56;;;;;;;1.00;0.50;;;;;;;;;;5071385;28;20036;-60
2021/12/25 07:41:22;;;;;;;1.10;0.40;;;;;;;;;;5072191;28;20150;-60
2021/12/25 07:43:48;;;;;;;0.73;0.60;;;;;;;;;;5071912;28;20174;-60
2021/12/25 07:46:14;;;;;;;0.93;0.40;;;;;;;;;;5071486;28;20438;-60
2021/12/25 07:48:40;;;;;;;3.38;0.60;;;;;;;;;;5104281;28;20124;-60
2021/12/25 07:51:06;;;;;;;2.00;0.40;;;;;;;;;;5071531;28;20578;-60
2021/12/25 07:53:32;;;;;;;0.75;0.30;;;;;;;;;;5070748;28;20051;-60
2021/12/25 07:55:59;;;;;;;1.25;0.60;;;;;;;;;;5071895;28;20055;-60
2021/12/25 07:58:25;;;;;;;1.13;0.32;;;;;;;;;;5072021;28;20048;-60
2021/12/25 08:00:51;;;;;;;1.23;0.30;;;;;;;;;;5071327;28;20124;-60
2021/12/25 08:03:18;;;;;;;2.28;0.70;;;;;;;;;;5071614;28;20041;-60
2021/12/25 08:05:44;;;;;;;1.50;0.30;;;;;;;;;;5071739;28;20032;-60
2021/12/25 08:08:12;;;;;;;1.58;0.77;;;;;;;;;;5071086;28;20037;-60
2021/12/25 08:10:39;;;;;;;0.50;0.32;;;;;;;;;;5071327;28;20087;-60
2021/12/25 08:13:05;;;;;;;0.90;0.35;;;;;;;;;;5071343;28;20054;-60
2021/12/25 08:15:31;;;;;;;0.77;0.47;;;;;;;;;;5070855;28;20495;-60
2021/12/25 08:18:00;;;;;;;1.52;0.47;;;;;;;;;;5071628;28;20077;-60
2021/12/25 08:20:26;;;;;;;2.28;0.40;;;;;;;;;;5071567;28;20056;-60
2021/12/25 08:22:52;;;;;;;1.52;0.55;;;;;;;;;;5070367;28;20052;-60
2021/12/25 08:25:18;;;;;;;2.40;0.43;;;;;;;;;;5103686;28;20047;-60
2021/12/25 08:27:45;;;;;;;3.78;0.38;;;;;;;;;;5071524;28;20048;-60
2021/12/25 08:30:13;;;;;;;2.83;0.45;;;;;;;;;;5070846;28;20051;-60
2021/12/25 08:32:40;;;;;;;6.93;0.88;;;;;;;;;;5071333;28;20094;-60
2021/12/25 08:35:06;;;;;;;0.95;0.45;;;;;;;;;;5071192;28;20075;-60
2021/12/25 08:37:32;;;;;;;3.60;0.50;;;;;;;;;;5069418;28;20048;-60
2021/12/25 08:39:59;;;;;;;4.07;0.65;;;;;;;;;;5071477;28;20039;-60
2021/12/25 08:42:26;;;;;;;1.73;0.30;;;;;;;;;;5071026;28;20048;-60
2021/12/25 08:45:04;;;;;;;2.95;0.40;;;;;;;;;;5070718;28;20080;-60
2021/12/25 08:47:32;;;;;;;3.03;0.40;;;;;;;;;;5071430;28;20487;-60
2021/12/25 08:49:59;;;;;;;1.60;0.55;;;;;;;;;;5071404;28;20033;-60
2021/12/25 08:52:25;;;;;;;1.40;0.60;;;;;;;;;;5070601;28;20047;-60
2021/12/25 08:54:52;;;;;;;7.28;1.50;;;;;;;;;;5071297;28;20044;-60
2021/12/25 08:57:20;;;;;;;3.00;1.25;;;;;;;;;;5071372;28;20374;-60
2021/12/25 08:59:46;;;;;;;4.00;0.90;;;;;;;;;;5070680;28;20056;-59
2021/12/25 09:02:15;;;;;;;2.70;0.80;;;;;;;;;;5071218;28;20519;-60
2021/12/25 09:04:41;;;;;;;2.42;1.02;;;;;;;;;;5071106;28;20056;-60
2021/12/25 09:07:08;;;;;;;3.22;0.50;;;;;;;;;;5074243;28;20036;-60
2021/12/25 09:09:34;;;;;;;1.13;0.50;;;;;;;;;;5074927;28;20383;-60
2021/12/25 09:12:00;;;;;;;2.42;0.50;;;;;;;;;;5074843;28;20036;-60
2021/12/25 09:14:26;;;;;;;3.72;0.90;;;;;;;;;;5074254;28;20048;-60
2021/12/25 09:16:53;;;;;;;0.75;0.50;;;;;;;;;;5074928;28;20422;-60
2021/12/25 09:19:19;;;;;;;0.60;0.40;;;;;;;;;;5074868;28;20471;-60
2021/12/25 09:21:45;;;;;;;2.58;0.68;;;;;;;;;;5074103;28;20832;-60
2021/12/25 09:24:11;;;;;;;3.65;0.40;;;;;;;;;;5074328;28;20053;-60
2021/12/25 09:26:37;;;;;;;0.32;0.32;;;;;;;;;;5074695;28;20483;-60
2021/12/25 09:29:04;;;;;;;1.45;0.52;;;;;;;;;;5106354;28;20129;-60
2021/12/25 09:31:30;;;;;;;1.45;0.50;;;;;;;;;;5074445;28;20058;-60
2021/12/25 09:33:56;;;;;;;1.38;0.70;;;;;;;;;;5074133;28;20048;-60
2021/12/25 09:36:22;;;;;;;2.85;0.50;;;;;;;;;;5073866;28;20131;-60
2021/12/25 09:38:50;;;;;;;0.55;0.40;;;;;;;;;;5074361;28;20051;-60
2021/12/25 09:41:16;;;;;;;2.22;0.47;;;;;;;;;;5074249;28;20528;-60
2021/12/25 09:43:44;;;;;;;1.20;0.95;;;;;;;;;;5073609;28;20076;-60
2021/12/25 09:46:10;;;;;;;3.15;0.40;;;;;;;;;;5074295;28;20036;-60
2021/12/25 09:48:36;;;;;;;2.15;0.50;;;;;;;;;;5074338;28;20037;-60
2021/12/25 09:51:03;;;;;;;0.98;0.40;;;;;;;;;;5073956;28;20036;-60
2021/12/25 09:53:29;;;;;;;3.15;0.43;;;;;;;;;;5073965;28;20040;-60
2021/12/25 09:55:56;;;;;;;1.88;0.50;;;;;;;;;;5074139;28;20551;-61
2021/12/25 09:58:22;;;;;;;1.65;0.40;;;;;;;;;;5073920;28;20095;-60
2021/12/25 10:00:51;;;;;;;7.15;0.50;;;;;;;;;;5073586;28;20041;-60
2021/12/25 10:03:18;;;;;;;3.33;0.50;;;;;;;;;;5073533;28;20491;-60
2021/12/25 10:05:46;;;;;;;3.20;0.75;;;;;;;;;;5074050;28;20040;-60
2021/12/25 10:08:13;;;;;;;2.20;0.50;;;;;;;;;;5073306;28;20398;-60
2021/12/25 10:10:48;;;;;;;0.88;0.43;;;;;;;;;;5073836;28;20037;-60
2021/12/25 10:13:29;;;;;;;3.60;0.60;;;;;;;;;;5073642;28;20090;-60
2021/12/25 10:16:01;;;;;;;1.85;0.70;;;;;;;;;;5073638;28;20049;-60
2021/12/25 10:18:34;;;;;;;3.27;0.50;;;;;;;;;;5073723;28;20459;-60
2021/12/25 10:21:20;;;;;;;3.85;0.70;;;;;;;;;;5073091;28;20048;-60
2021/12/25 10:24:02;;;;;;;1.10;1.00;;;;;;;;;;5073396;28;20460;-60
2021/12/25 10:26:28;;;;;;;3.28;0.60;;;;;;;;;;5073502;28;20102;-60
2021/12/25 10:28:54;;;;;;;0.98;0.47;;;;;;;;;;5071761;28;20044;-60
2021/12/25 10:31:30;;;;;;;1.70;0.47;;;;;;;;;;5073177;28;20044;-60
2021/12/25 10:33:56;;;;;;;0.93;0.40;;;;;;;;;;5073329;28;20047;-60
2021/12/25 10:36:28;;;;;;;2.40;0.50;;;;;;;;;;5072970;28;20123;-60
2021/12/25 10:39:06;;;;;;;4.00;0.75;;;;;;;;;;5073155;28;20467;-61
2021/12/25 10:41:35;;;;;;;1.73;0.50;;;;;;;;;;5073369;28;20094;-60
2021/12/25 10:44:10;;;;;;;2.80;0.60;;;;;;;;;;5072505;28;20072;-60
2021/12/25 10:47:02;;;;;;;1.88;0.50;;;;;;;;;;5073207;28;20052;-60
2021/12/25 10:49:34;;;;;;;1.60;0.70;;;;;;;;;;5071684;28;20131;-60
2021/12/25 10:52:10;;;;;;;2.42;0.50;;;;;;;;;;5072299;28;20037;-60
2021/12/25 10:54:39;;;;;;;2.30;0.40;;;;;;;;;;5073145;28;20045;-60
2021/12/25 10:57:05;;;;;;;1.00;0.47;;;;;;;;;;5073172;28;20119;-60
2021/12/25 10:59:41;;;;;;;1.75;0.63;;;;;;;;;;5072333;28;20441;-60
2021/12/25 11:02:08;;;;;;;1.42;0.65;;;;;;;;;;5072685;28;20040;-61
2021/12/25 11:04:36;;;;;;;4.57;0.65;;;;;;;;;;5072930;28;20045;-60
2021/12/25 11:07:16;;;;;;;2.90;0.60;;;;;;;;;;5072209;28;20040;-60
2021/12/25 11:10:01;;;;;;;2.65;0.63;;;;;;;;;;5072727;28;20045;-60
2021/12/25 11:12:29;;;;;;;3.63;0.80;;;;;;;;;;5072230;28;20105;-60
2021/12/25 11:15:08;;;;;;;1.73;0.80;;;;;;;;;;5072544;28;20048;-60
2021/12/25 11:17:35;;;;;;;3.50;1.10;;;;;;;;;;5072688;28;20045;-60
2021/12/25 11:20:02;;;;;;;0.60;0.60;;;;;;;;;;5071655;28;20523;-61
2021/12/25 11:22:45;;;;;;;1.88;0.60;;;;;;;;;;5072201;28;20068;-61
2021/12/25 11:25:12;;;;;;;3.08;0.70;;;;;;;;;;5072490;28;20048;-61
2021/12/25 11:27:38;;;;;;;5.57;0.70;;;;;;;;;;5071198;28;20047;-61
2021/12/25 11:30:05;;;;;;;4.43;0.60;;;;;;;;;;5072048;28;20033;-61
2021/12/25 11:32:32;;;;;;;1.80;0.52;;;;;;;;;;5072067;28;20033;-61
2021/12/25 11:34:58;;;;;;;1.13;0.47;;;;;;;;;;5071582;28;20139;-61
2021/12/25 11:37:25;;;;;;;1.83;0.60;;;;;;;;;;5071904;28;20135;-61
2021/12/25 11:39:53;;;;;;;1.50;0.40;;;;;;;;;;5072170;28;20040;-61
2021/12/25 11:42:20;;;;;;;2.90;0.52;;;;;;;;;;5071343;28;20048;-61
2021/12/25 11:44:51;;;;;;;4.15;0.70;;;;;;;;;;5072000;28;20071;-61
2021/12/25 11:47:38;;;;;;;1.73;0.70;;;;;;;;;;5072152;28;20080;-61
2021/12/25 11:50:06;;;;;;;2.45;0.70;;;;;;;;;;5071027;28;20403;-61
2021/12/25 11:52:39;;;;;;;4.93;1.15;;;;;;;;;;5071865;28;20036;-61
2021/12/25 11:58:36;;;;;;;2.33;0.60;;;;;;;;;;5071234;28;20510;-61
2021/12/25 12:00:56;;;;;;;3.15;0.85;;;;;;;;;;5071259;28;20037;-61
2021/12/25 12:03:56;;;;;;;3.70;0.60;;;;;;;;;;5071659;28;20036;-61
2021/12/25 12:06:40;;;;;;;3.60;0.77;;;;;;;;;;5069480;28;20056;-61
2021/12/25 12:09:10;;;;;;;1.33;0.52;;;;;;;;;;5071655;28;20490;-61
2021/12/25 12:11:37;;;;;;;3.05;0.55;;;;;;;;;;5071559;28;20671;-61
2021/12/25 12:14:12;;;;;;;1.85;0.70;;;;;;;;;;5071005;28;20044;-61
2021/12/25 12:16:59;;;;;;;1.23;0.70;;;;;;;;;;5071717;28;20043;-61
2021/12/25 12:19:37;;;;;;;1.52;0.50;;;;;;;;;;5070643;28;20051;-61
2021/12/25 12:22:24;;;;;;;5.20;1.15;;;;;;;;;;5071254;28;20051;-61
2021/12/25 12:25:17;;;;;;;2.95;0.73;;;;;;;;;;5071369;28;20052;-61
2021/12/25 12:27:48;;;;;;;1.85;0.80;;;;;;;;;;5050661;28;20598;-61
2021/12/25 12:30:34;;;;;;;2.07;0.73;;;;;;;;;;5051440;28;20086;-61
2021/12/25 12:33:01;;;;;;;0.80;0.60;;;;;;;;;;5051124;28;20048;-61
2021/12/25 12:35:36;;;;;;;2.03;0.90;;;;;;;;;;5050889;28;20083;-61
2021/12/25 12:38:20;;;;;;;1.92;0.75;;;;;;;;;;5051673;28;20041;-61
2021/12/25 12:41:06;;;;;;;1.50;0.70;;;;;;;;;;5054898;28;20037;-61
2021/12/25 12:43:51;;;;;;;1.88;0.82;;;;;;;;;;5054444;28;20049;-61
2021/12/25 12:46:17;;;;;;;4.15;0.65;;;;;;;;;;5054346;28;20045;-61
2021/12/25 12:49:01;;;;;;;3.65;0.80;;;;;;;;;;5054670;28;20055;-61
2021/12/25 12:51:27;;;;;;;1.33;0.70;;;;;;;;;;5055030;28;20071;-61
2021/12/25 12:53:53;;;;;;;1.40;0.60;;;;;;;;;;5055106;28;20479;-61
2021/12/25 12:56:21;;;;;;;1.85;0.75;;;;;;;;;;5054383;28;20068;-61
2021/12/25 12:58:55;;;;;;;5.28;0.75;;;;;;;;;;5053776;28;20045;-61
2021/12/25 13:01:22;;;;;;;3.67;0.90;;;;;;;;;;5055235;28;20049;-61
2021/12/25 13:03:54;;;;;;;1.67;0.68;;;;;;;;;;5054358;28;20106;-61
2021/12/25 13:06:20;;;;;;;0.93;0.70;;;;;;;;;;5055329;28;20064;-61
2021/12/25 13:08:47;;;;;;;3.65;0.98;;;;;;;;;;5054889;28;20072;-61
2021/12/25 13:11:30;;;;;;;3.58;0.70;;;;;;;;;;5054264;28;20045;-61
2021/12/25 13:14:01;;;;;;;2.90;0.60;;;;;;;;;;5054957;28;20049;-61
2021/12/25 13:16:35;;;;;;;2.22;0.90;;;;;;;;;;5054976;28;20118;-61
2021/12/25 13:19:05;;;;;;;1.88;0.60;;;;;;;;;;5053998;28;20079;-61
2021/12/25 13:21:32;;;;;;;4.68;0.80;;;;;;;;;;5054743;28;20052;-61
2021/12/25 13:23:59;;;;;;;1.73;0.77;;;;;;;;;;5054234;28;20085;-61
2021/12/25 13:26:31;;;;;;;3.78;0.57;;;;;;;;;;5063674;28;20044;-61
2021/12/25 13:28:57;;;;;;;3.10;0.80;;;;;;;;;;5074697;28;20062;-61
2021/12/25 13:31:24;;;;;;;2.83;0.90;;;;;;;;;;5074195;28;20045;-61
2021/12/25 13:33:52;;;;;;;2.83;0.60;;;;;;;;;;5073823;28;20044;-60
2021/12/25 13:36:22;;;;;;;2.85;0.65;;;;;;;;;;5074520;28;20094;-60
2021/12/25 13:38:50;;;;;;;2.90;1.05;;;;;;;;;;5074557;28;20044;-59
2021/12/25 13:41:31;;;;;;;1.77;0.80;;;;;;;;;;5073812;28;20090;-59
2021/12/25 13:44:05;;;;;;;2.40;0.80;;;;;;;;;;5074334;28;20044;-59
2021/12/25 13:46:42;;;;;;;1.98;0.80;;;;;;;;;;5074477;28;20465;-59
2021/12/25 13:49:25;;;;;;;1.30;0.45;;;;;;;;;;5073660;28;20036;-59
2021/12/25 13:51:51;;;;;;;1.75;0.50;;;;;;;;;;5073542;28;20025;-59
2021/12/25 13:54:18;;;;;;;2.05;0.50;;;;;;;;;;5074122;28;20036;-59
2021/12/25 13:56:47;;;;;;;0.75;0.50;;;;;;;;;;5073530;28;20036;-59
2021/12/25 13:59:13;;;;;;;2.35;0.60;;;;;;;;;;5074178;28;20047;-59
2021/12/25 14:01:39;;;;;;;1.58;0.40;;;;;;;;;;5074069;28;20094;-59
2021/12/25 14:04:09;;;;;;;2.80;0.60;;;;;;;;;;5073320;28;20045;-59
2021/12/25 14:06:37;;;;;;;1.55;0.70;;;;;;;;;;5074096;28;20036;-59
2021/12/25 14:09:04;;;;;;;2.70;0.70;;;;;;;;;;5073713;28;20044;-63
2021/12/25 14:11:30;;;;;;;3.45;0.85;;;;;;;;;;5073295;28;20085;-62
2021/12/25 14:13:56;;;;;;;2.85;0.55;;;;;;;;;;5073863;28;20072;-61
2021/12/25 14:16:22;;;;;;;1.48;0.68;;;;;;;;;;5073963;28;20124;-61
2021/12/25 14:18:48;;;;;;;2.03;0.60;;;;;;;;;;5073217;28;20079;-60
2021/12/25 14:21:22;;;;;;;1.55;0.60;;;;;;;;;;5073674;28;20044;-61
2021/12/25 14:24:00;;;;;;;1.45;0.60;;;;;;;;;;5073092;28;20056;-61
2021/12/25 14:26:26;;;;;;;3.13;0.70;;;;;;;;;;5073092;28;20495;-61
2021/12/25 14:28:52;;;;;;;3.72;0.50;;;;;;;;;;5073665;28;20120;-61
2021/12/25 14:31:18;;;;;;;1.60;0.57;;;;;;;;;;5073479;28;20036;-61
2021/12/25 14:33:56;;;;;;;4.00;1.02;;;;;;;;;;5072697;28;20052;-60
2021/12/25 14:36:22;;;;;;;5.28;0.77;;;;;;;;;;5073219;28;20402;-60
2021/12/25 14:38:49;;;;;;;3.05;0.90;;;;;;;;;;5073313;28;20032;-60
2021/12/25 14:41:17;;;;;;;3.15;0.90;;;;;;;;;;5072777;28;20103;-60
2021/12/25 14:43:43;;;;;;;2.53;0.80;;;;;;;;;;5073062;28;20040;-60
2021/12/25 14:46:10;;;;;;;3.75;0.82;;;;;;;;;;5073274;28;20036;-60
2021/12/25 14:48:38;;;;;;;2.60;0.70;;;;;;;;;;5072635;28;20085;-61
2021/12/25 14:51:15;;;;;;;1.38;0.80;;;;;;;;;;5073032;28;20033;-60
2021/12/25 14:53:47;;;;;;;4.20;0.70;;;;;;;;;;5105579;28;20047;-60
2021/12/25 14:56:18;;;;;;;3.28;0.57;;;;;;;;;;5072469;28;20048;-60
2021/12/25 14:59:10;;;;;;;2.25;1.08;;;;;;;;;;5072943;28;20078;-61
2021/12/25 15:01:38;;;;;;;3.72;0.77;;;;;;;;;;5072442;28;20056;-61
2021/12/25 15:04:11;;;;;;;2.13;0.82;;;;;;;;;;5071115;28;20364;-60
2021/12/25 15:06:53;;;;;;;3.33;1.00;;;;;;;;;;5072854;28;20535;-60
2021/12/25 15:09:21;;;;;;;1.20;0.77;;;;;;;;;;5071934;28;20098;-60
2021/12/25 15:11:48;;;;;;;3.28;0.90;;;;;;;;;;5072404;28;20078;-60
2021/12/25 15:14:35;;;;;;;3.55;0.95;;;;;;;;;;5072662;28;20060;-60
2021/12/25 15:17:12;;;;;;;1.65;0.70;;;;;;;;;;5071748;28;20048;-60
2021/12/25 15:19:40;;;;;;;5.93;1.00;;;;;;;;;;5072719;28;20041;-60
2021/12/25 15:22:09;;;;;;;5.22;1.80;;;;;;;;;;5072145;28;20063;-61
2021/12/25 15:24:35;;;;;;;5.85;2.47;;;;;;;;;;5071402;28;20045;-60
2021/12/25 15:27:03;;;;;;;4.13;1.20;;;;;;;;;;5072246;28;20048;-60
2021/12/25 15:29:37;;;;;;;2.75;1.00;;;;;;;;;;5071947;28;20123;-60
2021/12/25 15:32:05;;;;;;;5.38;0.75;;;;;;;;;;5071544;28;20040;-61
2021/12/25 15:34:31;;;;;;;5.70;1.02;;;;;;;;;;5071956;28;20041;-60
2021/12/25 15:36:58;;;;;;;1.52;0.80;;;;;;;;;;5072203;28;20111;-60
2021/12/25 15:39:26;;;;;;;1.20;0.85;;;;;;;;;;5071577;28;20399;-60
2021/12/25 15:41:53;;;;;;;3.83;1.10;;;;;;;;;;5072067;28;20044;-60
2021/12/25 15:44:20;;;;;;;2.40;0.85;;;;;;;;;;5072086;28;20051;-60
2021/12/25 15:46:48;;;;;;;2.75;0.93;;;;;;;;;;5071399;28;20040;-60
2021/12/25 15:49:14;;;;;;;1.70;0.90;;;;;;;;;;5071727;28;20067;-60
2021/12/25 15:51:40;;;;;;;5.13;0.90;;;;;;;;;;5071934;28;20047;-60
2021/12/25 15:54:07;;;;;;;2.25;0.88;;;;;;;;;;5071119;28;20087;-60
2021/12/25 15:56:33;;;;;;;6.20;1.20;;;;;;;;;;5071930;28;20068;-60
2021/12/25 15:58:59;;;;;;;4.70;0.80;;;;;;;;;;5071879;28;20371;-60
2021/12/25 16:01:25;;;;;;;2.53;0.80;;;;;;;;;;5071251;28;20490;-60
2021/12/25 16:03:51;;;;;;;2.03;1.13;;;;;;;;;;5071735;28;20745;-59
2021/12/25 16:06:17;;;;;;;2.28;0.95;;;;;;;;;;5071790;28;20509;-59
2021/12/25 16:08:43;;;;;;;2.53;1.10;;;;;;;;;;5071206;28;20115;-60
2021/12/25 16:11:09;;;;;;;6.13;1.27;;;;;;;;;;5071806;28;20557;-60